Time;durP1;ratioP1;P1;durP2;ratioP2;P2;SDS_P1;SDS_P2;PMS_P1;PMS_P2;Temp;Humidity;BMP_temperature;BMP_pressure;BME280_temperature;BME280_humidity;BME280_pressure;Samples;Min_cycle;Max_cycle;Signal;HPM_P1;HPM_P2
2023/06/09 00:00:36;;;;;;;3.45;2.15;;;;;;;19.35;88.62;100660.81;5186333;28;20273;-73
2023/06/09 00:03:07;;;;;;;3.55;2.22;;;;;;;19.24;88.09;100663.34;5186514;28;20033;-73
2023/06/09 00:05:39;;;;;;;5.38;2.20;;;;;;;19.19;90.17;100657.53;5189102;28;20025;-73
2023/06/09 00:08:09;;;;;;;4.63;2.13;;;;;;;19.26;89.25;100658.78;5188637;28;20627;-73
2023/06/09 00:10:39;;;;;;;4.38;2.58;;;;;;;19.08;91.49;100660.03;5190086;28;20032;-74
2023/06/09 00:13:10;;;;;;;3.30;2.40;;;;;;;19.14;91.32;100659.59;5186297;28;20470;-74
2023/06/09 00:15:40;;;;;;;5.75;2.25;;;;;;;19.34;90.51;100661.75;5189580;28;20034;-73
2023/06/09 00:18:14;;;;;;;4.80;2.50;;;;;;;19.19;91.08;100660.19;5189204;28;20049;-73
2023/06/09 00:20:45;;;;;;;4.78;2.28;;;;;;;19.30;90.28;100660.25;5181613;28;20337;-73
2023/06/09 00:23:15;;;;;;;3.75;2.50;;;;;;;19.10;92.34;100663.41;5184984;28;21021;-73
2023/06/09 00:25:45;;;;;;;5.30;2.45;;;;;;;19.06;92.50;100656.63;5189156;28;20025;-73
2023/06/09 00:28:16;;;;;;;4.07;2.05;;;;;;;19.08;92.41;100660.03;5184404;28;20065;-73
2023/06/09 00:30:46;;;;;;;5.15;2.70;;;;;;;18.99;93.90;100663.31;5186449;28;20029;-74
2023/06/09 00:33:17;;;;;;;5.65;2.55;;;;;;;18.96;94.95;100660.84;5185878;28;20495;-73
2023/06/09 00:35:49;;;;;;;3.35;2.30;;;;;;;18.76;95.98;100663.19;5187110;28;20029;-73
2023/06/09 00:38:19;;;;;;;3.83;2.40;;;;;;;18.88;97.87;100657.03;5185822;28;20064;-73
2023/06/09 00:40:50;;;;;;;5.50;2.60;;;;;;;18.84;97.62;100659.06;5185211;28;20029;-73
2023/06/09 00:43:20;;;;;;;3.33;1.95;;;;;;;18.84;97.33;100668.78;5186882;28;20026;-74
2023/06/09 00:45:51;;;;;;;4.65;2.78;;;;;;;18.95;96.68;100664.47;5189363;28;20511;-73
2023/06/09 00:48:21;;;;;;;4.53;2.42;;;;;;;19.13;94.86;100663.19;5189386;28;20395;-73
2023/06/09 00:50:51;;;;;;;4.65;2.28;;;;;;;18.92;96.23;100662.03;5168712;28;20113;-73
2023/06/09 00:53:23;;;;;;;4.47;2.50;;;;;;;18.99;95.87;100660.66;5180369;28;20034;-73
2023/06/09 00:55:53;;;;;;;4.15;2.30;;;;;;;19.09;95.50;100666.19;5185591;28;20078;-74
2023/06/09 00:58:24;;;;;;;7.03;2.80;;;;;;;19.04;96.42;100660.34;5185463;28;20026;-73
2023/06/09 01:00:57;;;;;;;4.85;2.15;;;;;;;18.90;96.63;100663.94;5186375;28;20040;-73
2023/06/09 01:03:28;;;;;;;3.10;2.38;;;;;;;18.97;95.34;100661.72;5185652;28;20101;-73
2023/06/09 01:06:26;;;;;;;6.38;3.50;;;;;;;18.76;98.62;100677.25;5186941;28;20116;-73
2023/06/09 01:09:02;;;;;;;4.28;2.53;;;;;;;18.69;98.14;100669.81;5185124;28;20033;-73
2023/06/09 01:11:53;;;;;;;2.90;2.25;;;;;;;18.65;99.49;100662.22;5186628;28;20014;-74
2023/06/09 01:14:29;;;;;;;4.03;2.70;;;;;;;18.81;97.36;100667.22;5186101;28;20084;-73
2023/06/09 01:17:07;;;;;;;;;;;;;;;18.79;97.38;100669.09;5189300;28;20029;-73
2023/06/09 01:19:47;;;;;;;4.82;2.40;;;;;;;18.71;99.49;100667.09;5184125;28;20337;-73
2023/06/09 01:22:21;;;;;;;5.20;2.65;;;;;;;18.57;100.00;100670.66;5186181;28;20047;-74
2023/06/09 01:25:10;;;;;;;3.53;2.28;;;;;;;18.77;98.85;100672.81;5190047;28;20383;-73
2023/06/09 01:27:44;;;;;;;4.32;2.50;;;;;;;18.78;98.12;100672.69;5186470;28;20071;-73
2023/06/09 01:30:16;;;;;;;4.13;2.47;;;;;;;18.77;99.08;100672.81;5186518;28;20487;-73
2023/06/09 01:32:49;;;;;;;4.50;2.45;;;;;;;18.58;100.00;100671.50;5188317;28;20033;-74
2023/06/09 01:35:19;;;;;;;4.88;2.85;;;;;;;18.51;100.00;100667.56;5185940;28;20032;-73
2023/06/09 01:37:52;;;;;;;4.00;2.42;;;;;;;18.52;100.00;100669.28;5187940;28;20491;-73
2023/06/09 01:40:22;;;;;;;3.72;2.40;;;;;;;18.84;99.43;100679.38;5184930;28;20083;-74
2023/06/09 01:42:53;;;;;;;4.45;3.13;;;;;;;18.58;99.76;100676.78;5188558;28;20025;-73
2023/06/09 01:45:23;;;;;;;2.88;2.10;;;;;;;18.50;100.00;100668.53;5186710;28;20022;-73
2023/06/09 01:47:54;;;;;;;3.95;2.63;;;;;;;18.64;99.56;100663.13;5184893;28;20068;-73
2023/06/09 01:50:45;;;;;;;5.03;2.50;;;;;;;18.37;100.00;100670.28;5186628;28;20091;-74
2023/06/09 01:53:25;;;;;;;5.55;2.90;;;;;;;18.05;100.00;100669.72;5185777;28;20037;-74
2023/06/09 01:56:01;;;;;;;3.15;2.53;;;;;;;18.17;100.00;100673.34;5182819;28;20512;-73
2023/06/09 01:58:40;;;;;;;4.93;3.00;;;;;;;18.18;100.00;100667.13;5182574;28;20034;-73
2023/06/09 02:01:13;;;;;;;4.50;2.97;;;;;;;18.04;100.00;100668.00;5187336;28;20033;-73
2023/06/09 02:03:46;;;;;;;5.13;3.08;;;;;;;18.01;100.00;100662.91;5192173;28;20022;-73
2023/06/09 02:06:19;;;;;;;5.82;2.80;;;;;;;18.21;100.00;100666.91;5186475;28;20029;-73
2023/06/09 02:08:49;;;;;;;3.88;2.47;;;;;;;18.10;100.00;100661.47;5188899;28;20025;-73
2023/06/09 02:11:21;;;;;;;3.83;2.40;;;;;;;18.38;100.00;100659.56;5185632;28;20059;-74
2023/06/09 02:13:55;;;;;;;3.20;2.50;;;;;;;18.38;99.67;100656.09;5192474;28;20024;-74
2023/06/09 02:16:25;;;;;;;4.60;2.63;;;;;;;18.41;100.00;100655.88;5180520;28;20028;-74
2023/06/09 02:18:57;;;;;;;4.80;2.80;;;;;;;18.21;100.00;100653.69;5191326;28;20025;-72
2023/06/09 02:21:27;;;;;;;4.68;2.67;;;;;;;18.08;100.00;100660.72;5189835;28;20021;-73
2023/06/09 02:23:57;;;;;;;4.53;2.88;;;;;;;18.13;100.00;100662.13;5189139;28;20028;-73
2023/06/09 02:26:28;;;;;;;6.13;3.40;;;;;;;18.09;100.00;100657.13;5186754;28;20026;-73
2023/06/09 02:28:58;;;;;;;5.05;3.03;;;;;;;18.02;100.00;100666.41;5189446;28;20091;-73
2023/06/09 02:31:30;;;;;;;3.90;2.85;;;;;;;17.85;100.00;100667.47;5189572;28;20032;-73
2023/06/09 02:34:00;;;;;;;4.70;2.88;;;;;;;17.97;100.00;100665.88;5195993;28;20029;-73
2023/06/09 02:36:31;;;;;;;4.15;2.63;;;;;;;17.88;100.00;100663.78;5189487;28;20034;-73
2023/06/09 02:39:02;;;;;;;4.65;2.90;;;;;;;18.06;100.00;100665.25;5192395;28;20060;-73
2023/06/09 02:41:33;;;;;;;4.43;2.90;;;;;;;17.84;100.00;100664.94;5191038;28;20419;-73
2023/06/09 02:44:04;;;;;;;4.13;2.70;;;;;;;17.95;100.00;100662.44;5191910;28;20039;-73
2023/06/09 02:46:36;;;;;;;4.43;2.90;;;;;;;18.00;100.00;100668.31;5190139;28;20041;-73
2023/06/09 02:49:06;;;;;;;4.63;2.83;;;;;;;17.95;100.00;100667.72;5188829;28;20040;-73
2023/06/09 02:51:37;;;;;;;4.95;2.90;;;;;;;17.90;100.00;100675.13;5189701;28;20471;-73
2023/06/09 02:54:07;;;;;;;4.32;2.85;;;;;;;17.84;100.00;100672.88;5171519;28;20193;-73
2023/06/09 02:56:38;;;;;;;4.78;2.63;;;;;;;17.87;100.00;100676.19;5193272;28;20163;-73
2023/06/09 02:59:09;;;;;;;5.20;3.30;;;;;;;17.89;100.00;100681.34;5189932;28;20025;-73
2023/06/09 03:01:42;;;;;;;5.43;3.17;;;;;;;17.75;100.00;100676.94;5186231;28;20187;-73
2023/06/09 03:04:13;;;;;;;3.67;2.80;;;;;;;17.60;100.00;100674.41;5189712;28;20147;-74
2023/06/09 03:06:43;;;;;;;5.22;2.90;;;;;;;17.43;100.00;100674.59;5193311;28;20275;-73
2023/06/09 03:09:15;;;;;;;4.63;3.08;;;;;;;17.68;100.00;100678.25;5189816;28;20036;-73
2023/06/09 03:11:46;;;;;;;4.35;2.80;;;;;;;17.74;100.00;100674.41;5188770;28;20029;-74
2023/06/09 03:14:16;;;;;;;4.53;2.97;;;;;;;17.71;100.00;100674.59;5190621;28;20060;-73
2023/06/09 03:16:47;;;;;;;3.75;3.00;;;;;;;17.65;100.00;100688.19;5192608;28;20037;-74
2023/06/09 03:19:18;;;;;;;4.60;3.10;;;;;;;17.63;100.00;100687.47;5188812;28;20037;-73
2023/06/09 03:21:48;;;;;;;6.15;3.03;;;;;;;17.81;100.00;100687.13;5188796;28;20351;-72
2023/06/09 03:24:19;;;;;;;3.70;2.83;;;;;;;17.81;100.00;100684.50;5188988;28;20024;-73
2023/06/09 03:26:49;;;;;;;4.97;3.03;;;;;;;17.77;100.00;100695.34;5191713;28;20280;-73
2023/06/09 03:29:20;;;;;;;4.40;2.80;;;;;;;17.81;100.00;100697.72;5189765;28;20032;-73
2023/06/09 03:31:50;;;;;;;5.45;3.28;;;;;;;17.61;100.00;100700.75;5191474;28;20596;-73
2023/06/09 03:34:21;;;;;;;6.32;3.17;;;;;;;17.51;100.00;100701.41;5188213;28;20641;-73
2023/06/09 03:36:51;;;;;;;6.72;3.60;;;;;;;17.47;100.00;100698.13;5193742;28;20029;-73
2023/06/09 03:39:21;;;;;;;5.78;3.20;;;;;;;17.44;100.00;100694.81;5189578;28;20029;-73
2023/06/09 03:41:54;;;;;;;5.75;3.35;;;;;;;17.79;100.00;100698.78;5188827;28;20022;-73
2023/06/09 03:44:24;;;;;;;7.72;3.63;;;;;;;17.88;100.00;100695.53;5191969;28;20022;-73
2023/06/09 03:46:54;;;;;;;7.95;4.70;;;;;;;17.88;100.00;100698.19;5191790;28;20079;-73
2023/06/09 03:49:25;;;;;;;5.47;3.80;;;;;;;17.86;100.00;100705.34;5187380;28;20080;-73
2023/06/09 03:51:55;;;;;;;6.65;4.53;;;;;;;17.95;100.00;100694.19;5191340;28;20279;-74
2023/06/09 03:54:26;;;;;;;6.43;4.45;;;;;;;18.06;100.00;100697.00;5185873;28;20022;-73
2023/06/09 03:56:56;;;;;;;6.30;4.00;;;;;;;18.22;100.00;100693.28;5192477;28;20021;-73
2023/06/09 03:59:27;;;;;;;7.63;4.13;;;;;;;18.34;100.00;100695.16;5188905;28;20109;-73
2023/06/09 04:01:57;;;;;;;5.57;3.70;;;;;;;18.19;100.00;100698.75;5185538;28;20768;-74
2023/06/09 04:04:27;;;;;;;6.97;4.20;;;;;;;18.21;100.00;100696.00;5187826;28;20281;-74
2023/06/09 04:06:59;;;;;;;5.90;3.93;;;;;;;18.03;100.00;100697.19;5218041;23;20045;-72
2023/06/09 04:09:29;;;;;;;7.47;4.22;;;;;;;18.12;100.00;100699.25;5205833;28;20322;-71
2023/06/09 04:12:00;;;;;;;6.88;4.47;;;;;;;18.02;100.00;100690.22;5207886;28;20028;-72
2023/06/09 04:14:30;;;;;;;6.35;3.80;;;;;;;18.07;100.00;100701.34;5208578;28;20160;-72
2023/06/09 04:17:02;;;;;;;6.07;4.43;;;;;;;17.98;100.00;100696.66;5210213;28;20120;-72
2023/06/09 04:19:32;;;;;;;8.70;4.60;;;;;;;17.97;100.00;100697.59;5208550;28;20351;-72
2023/06/09 04:22:05;;;;;;;7.22;4.38;;;;;;;18.18;100.00;100696.22;5208376;28;20119;-72
2023/06/09 04:24:35;;;;;;;5.93;3.83;;;;;;;18.29;100.00;100693.72;5212107;28;20024;-72
2023/06/09 04:27:07;;;;;;;7.75;4.38;;;;;;;18.35;100.00;100696.00;5212197;28;20033;-72
2023/06/09 04:29:40;;;;;;;6.03;4.28;;;;;;;18.29;100.00;100699.91;5213040;28;20029;-72
2023/06/09 04:32:11;;;;;;;6.82;4.07;;;;;;;18.45;100.00;100689.13;5206088;28;20082;-70
2023/06/09 04:34:41;;;;;;;5.55;3.97;;;;;;;18.47;100.00;100692.53;5211133;28;20045;-72
2023/06/09 04:37:12;;;;;;;6.10;4.00;;;;;;;18.49;100.00;100693.31;5208570;28;20400;-69
2023/06/09 04:39:45;;;;;;;8.70;4.57;;;;;;;18.53;100.00;100690.34;5209302;28;20026;-72
2023/06/09 04:42:19;;;;;;;6.35;4.28;;;;;;;18.64;100.00;100694.91;5205051;28;20033;-72
2023/06/09 04:44:49;;;;;;;8.85;4.30;;;;;;;18.72;100.00;100690.81;5211476;28;20028;-72
2023/06/09 04:47:20;;;;;;;9.95;4.55;;;;;;;18.64;100.00;100695.78;5206365;28;20022;-72
2023/06/09 04:49:50;;;;;;;8.43;4.88;;;;;;;18.54;100.00;100693.84;5211193;28;20091;-72
2023/06/09 04:52:21;;;;;;;6.07;4.22;;;;;;;18.61;100.00;100693.34;5206703;28;20072;-72
2023/06/09 04:54:52;;;;;;;6.30;4.15;;;;;;;18.76;100.00;100695.78;5210666;28;20028;-72
2023/06/09 04:57:22;;;;;;;6.80;4.18;;;;;;;18.82;100.00;100695.41;5206677;28;20036;-72
2023/06/09 04:59:53;;;;;;;7.40;4.30;;;;;;;18.87;100.00;100697.72;5210531;28;20029;-72
2023/06/09 05:02:24;;;;;;;6.93;4.65;;;;;;;18.89;100.00;100696.69;5207714;28;20045;-72
2023/06/09 05:04:55;;;;;;;7.25;4.70;;;;;;;18.88;100.00;100689.69;5205508;28;20492;-72
2023/06/09 05:07:25;;;;;;;7.13;4.80;;;;;;;19.13;100.00;100687.03;5207197;28;20052;-72
2023/06/09 05:09:56;;;;;;;6.72;4.15;;;;;;;19.29;97.82;100689.53;5210973;28;20053;-72
2023/06/09 05:12:26;;;;;;;8.05;4.63;;;;;;;19.30;97.58;100678.81;5205213;28;20021;-72
2023/06/09 05:14:56;;;;;;;6.90;4.78;;;;;;;19.57;96.12;100686.63;5208974;28;20503;-72
2023/06/09 05:17:26;;;;;;;7.47;4.32;;;;;;;19.64;95.26;100680.78;5210982;28;20033;-72
2023/06/09 05:19:57;;;;;;;8.10;4.68;;;;;;;19.50;96.80;100688.91;5210965;28;20134;-73
2023/06/09 05:22:27;;;;;;;7.38;4.90;;;;;;;19.71;95.48;100686.50;5203418;28;20403;-72
2023/06/09 05:24:57;;;;;;;7.60;4.60;;;;;;;19.89;95.76;100687.84;5211963;28;20371;-71
2023/06/09 05:27:28;;;;;;;6.68;4.45;;;;;;;19.99;95.00;100702.16;5207354;28;20029;-72
2023/06/09 05:29:58;;;;;;;10.63;4.75;;;;;;;19.89;95.04;100699.31;5210539;28;20056;-72
2023/06/09 05:32:28;;;;;;;8.00;4.97;;;;;;;19.90;94.91;100708.97;5204962;28;20021;-72
2023/06/09 05:35:00;;;;;;;8.67;4.93;;;;;;;19.79;93.68;100711.53;5212639;28;20044;-72
2023/06/09 05:37:30;;;;;;;9.10;4.78;;;;;;;19.76;93.60;100711.75;5204513;28;20283;-72
2023/06/09 05:40:00;;;;;;;6.27;4.50;;;;;;;19.89;94.16;100711.72;5207760;28;20483;-72
2023/06/09 05:42:31;;;;;;;8.90;4.47;;;;;;;19.80;93.69;100718.53;5202121;28;20772;-72
2023/06/09 05:45:01;;;;;;;8.43;4.70;;;;;;;19.93;91.96;100722.00;5206250;28;20029;-73
2023/06/09 05:47:31;;;;;;;11.73;4.82;;;;;;;19.89;92.95;100719.69;5207513;28;20287;-72
2023/06/09 05:50:02;;;;;;;7.65;4.63;;;;;;;19.94;93.15;100721.06;5209838;28;20143;-71
2023/06/09 05:52:32;;;;;;;7.60;5.13;;;;;;;19.91;93.26;100726.59;5205554;28;20455;-72
2023/06/09 05:55:03;;;;;;;11.65;4.88;;;;;;;20.00;92.05;100717.97;5210725;28;20675;-71
2023/06/09 05:57:33;;;;;;;9.57;4.68;;;;;;;19.68;93.22;100721.22;5207867;28;20057;-72
2023/06/09 06:00:09;;;;;;;9.73;4.88;;;;;;;19.79;92.06;100726.63;5205729;28;20032;-72
2023/06/09 06:02:39;;;;;;;8.05;4.88;;;;;;;19.69;92.18;100725.56;5201750;28;20571;-73
2023/06/09 06:05:09;;;;;;;9.27;5.40;;;;;;;19.82;91.56;100727.22;5211880;28;20064;-73
2023/06/09 06:07:40;;;;;;;7.18;5.03;;;;;;;19.86;91.14;100728.72;5212752;28;20040;-72
2023/06/09 06:10:10;;;;;;;8.05;5.05;;;;;;;19.84;91.00;100728.00;5212619;28;20024;-72
2023/06/09 06:12:41;;;;;;;9.00;4.82;;;;;;;20.03;88.89;100735.50;5211259;28;20028;-71
2023/06/09 06:15:11;;;;;;;11.40;6.50;;;;;;;20.00;88.66;100735.69;5212132;28;20040;-72
2023/06/09 06:17:41;;;;;;;8.45;5.20;;;;;;;19.99;88.64;100736.66;5212090;28;20762;-73
2023/06/09 06:20:12;;;;;;;7.82;4.47;;;;;;;20.11;87.27;100733.16;5213850;28;20031;-73
2023/06/09 06:22:43;;;;;;;8.13;4.75;;;;;;;20.09;87.87;100743.88;5207570;28;20036;-72
2023/06/09 06:25:13;;;;;;;8.95;4.88;;;;;;;19.85;88.40;100737.66;5214494;28;20037;-72
2023/06/09 06:27:43;;;;;;;7.43;4.67;;;;;;;20.26;87.38;100735.53;5214553;28;20356;-72
2023/06/09 06:30:14;;;;;;;7.43;4.57;;;;;;;20.35;86.21;100740.19;5212296;28;20284;-72
2023/06/09 06:32:50;;;;;;;10.45;4.95;;;;;;;20.70;84.87;100735.78;5211737;28;20441;-72
2023/06/09 06:35:28;;;;;;;7.57;4.72;;;;;;;20.61;84.22;100739.13;5212088;28;20056;-72
2023/06/09 06:37:58;;;;;;;7.88;4.30;;;;;;;21.06;83.77;100735.72;5208496;28;20043;-72
2023/06/09 06:40:29;;;;;;;9.30;4.60;;;;;;;21.32;81.19;100742.53;5211210;28;20025;-72
2023/06/09 06:42:59;;;;;;;6.93;4.20;;;;;;;21.34;82.10;100740.59;5207526;28;20029;-72
2023/06/09 06:45:30;;;;;;;7.40;4.40;;;;;;;21.31;82.43;100740.81;5212338;28;20434;-72
2023/06/09 06:48:00;;;;;;;8.18;4.55;;;;;;;21.52;82.14;100740.03;5213280;28;20067;-72
2023/06/09 06:50:32;;;;;;;8.13;4.20;;;;;;;21.73;80.34;100745.53;5213772;28;20037;-72
2023/06/09 06:53:03;;;;;;;8.55;4.05;;;;;;;21.72;80.80;100754.47;5214446;28;20361;-72
2023/06/09 06:55:34;;;;;;;6.43;4.10;;;;;;;21.72;80.40;100747.31;5212926;28;20040;-72
2023/06/09 06:58:04;;;;;;;6.60;4.20;;;;;;;21.46;81.21;100750.28;5205948;28;20512;-72
2023/06/09 07:00:35;;;;;;;8.00;4.32;;;;;;;21.75;80.49;100759.56;5205158;28;20049;-72
2023/06/09 07:03:05;;;;;;;8.82;4.55;;;;;;;21.71;81.25;100758.94;5211249;28;20126;-73
2023/06/09 07:05:36;;;;;;;7.80;4.25;;;;;;;21.52;81.40;100760.44;5213820;28;20029;-72
2023/06/09 07:08:06;;;;;;;5.70;4.20;;;;;;;21.67;80.29;100760.16;5211960;28;20025;-72
2023/06/09 07:10:37;;;;;;;9.00;4.43;;;;;;;21.52;81.28;100760.44;5206563;28;20026;-72
2023/06/09 07:13:07;;;;;;;9.90;3.80;;;;;;;21.33;82.47;100765.50;5214721;28;20824;-71
2023/06/09 07:15:38;;;;;;;7.90;4.10;;;;;;;21.57;81.73;100753.81;5214435;28;22068;-73
2023/06/09 07:18:09;;;;;;;7.40;4.07;;;;;;;21.60;80.80;100763.38;5210808;28;20283;-72
2023/06/09 07:20:40;;;;;;;5.75;4.10;;;;;;;22.04;80.43;100763.41;5207247;28;20037;-72
2023/06/09 07:23:10;;;;;;;7.15;4.32;;;;;;;21.99;79.07;100765.59;5211906;28;20021;-72
2023/06/09 07:25:40;;;;;;;5.78;3.97;;;;;;;22.03;79.48;100764.38;5212147;28;20517;-71
2023/06/09 07:28:12;;;;;;;7.03;4.27;;;;;;;21.95;79.27;100766.81;5197207;28;20040;-72
2023/06/09 07:30:42;;;;;;;8.98;4.35;;;;;;;21.71;81.39;100772.25;5200513;28;20375;-72
2023/06/09 07:33:32;;;;;;;9.50;4.63;;;;;;;21.58;82.08;100760.00;5212059;28;20112;-72
2023/06/09 07:36:02;;;;;;;6.97;3.97;;;;;;;21.60;81.21;100768.69;5207435;28;20032;-72
2023/06/09 07:38:35;;;;;;;7.63;3.65;;;;;;;22.01;79.03;100763.66;5209620;28;20528;-72
2023/06/09 07:41:05;;;;;;;6.45;3.92;;;;;;;21.76;82.00;100763.91;5213143;28;20025;-71
2023/06/09 07:43:36;;;;;;;6.67;3.77;;;;;;;21.56;81.33;100756.59;5211188;28;20040;-72
2023/06/09 07:46:07;;;;;;;7.50;3.97;;;;;;;21.59;80.94;100764.34;5206511;28;20622;-72
2023/06/09 07:48:38;;;;;;;9.05;4.15;;;;;;;21.73;79.02;100764.16;5211033;28;20028;-72
2023/06/09 07:51:09;;;;;;;11.05;4.45;;;;;;;22.22;78.16;100765.44;5211743;28;20032;-72
2023/06/09 07:53:39;;;;;;;10.60;3.58;;;;;;;23.13;75.38;100757.81;5211614;28;20037;-71
2023/06/09 07:56:09;;;;;;;7.20;4.30;;;;;;;23.98;70.56;100757.50;5212347;28;20025;-73
2023/06/09 07:58:41;;;;;;;11.45;3.72;;;;;;;24.24;72.59;100758.69;5211607;28;20653;-72
2023/06/09 08:01:11;;;;;;;7.20;3.60;;;;;;;24.60;69.65;100755.44;5210875;28;20550;-73
2023/06/09 08:03:41;;;;;;;6.95;3.55;;;;;;;25.47;66.81;100752.59;5209251;28;20028;-73
2023/06/09 08:06:12;;;;;;;7.90;4.23;;;;;;;25.12;67.20;100757.72;5210952;28;20120;-73
2023/06/09 08:08:43;;;;;;;5.60;3.33;;;;;;;24.36;68.47;100757.59;5211010;28;21236;-73
2023/06/09 08:11:14;;;;;;;7.05;3.75;;;;;;;24.35;69.09;100755.91;5204628;28;20037;-71
2023/06/09 08:13:44;;;;;;;6.60;3.60;;;;;;;23.83;68.67;100758.81;5212740;28;20394;-72
2023/06/09 08:16:14;;;;;;;8.55;3.80;;;;;;;23.67;70.56;100758.44;5204168;28;20159;-73
2023/06/09 08:18:45;;;;;;;9.32;3.72;;;;;;;23.24;71.81;100770.25;5212782;28;20025;-72
2023/06/09 08:21:16;;;;;;;6.97;3.40;;;;;;;23.51;71.92;100762.56;5210751;28;20037;-72
2023/06/09 08:23:46;;;;;;;9.20;3.70;;;;;;;23.20;73.21;100774.97;5212415;28;20268;-71
2023/06/09 08:26:16;;;;;;;8.57;3.90;;;;;;;22.93;75.09;100771.94;5212923;28;20031;-72
2023/06/09 08:28:48;;;;;;;7.37;3.90;;;;;;;22.58;75.92;100772.31;5209615;28;20418;-72
2023/06/09 08:31:18;;;;;;;7.53;3.63;;;;;;;22.14;76.22;100770.56;5209719;28;20346;-71
2023/06/09 08:33:50;;;;;;;8.20;3.60;;;;;;;22.40;75.96;100771.16;5212438;28;20570;-70
2023/06/09 08:36:21;;;;;;;6.57;3.30;;;;;;;22.55;75.30;100777.88;5206620;28;20061;-72
2023/06/09 08:38:51;;;;;;;6.13;3.45;;;;;;;22.31;76.55;100778.03;5206252;28;20057;-71
2023/06/09 08:41:27;;;;;;;7.43;4.00;;;;;;;22.58;74.72;100777.66;5208182;28;20033;-71
2023/06/09 08:43:58;;;;;;;5.60;3.65;;;;;;;22.01;74.99;100772.50;5204415;28;20264;-71
2023/06/09 08:46:33;;;;;;;7.20;3.92;;;;;;;21.95;77.32;100769.47;5200773;28;20422;-71
2023/06/09 08:49:04;;;;;;;6.95;4.00;;;;;;;22.39;75.09;100772.13;5203315;28;20052;-71
2023/06/09 08:51:37;;;;;;;5.18;3.60;;;;;;;22.14;77.45;100777.69;5200852;28;20026;-71
2023/06/09 08:54:09;;;;;;;8.23;3.55;;;;;;;22.64;76.93;100777.13;5203123;28;20659;-73
2023/06/09 08:56:40;;;;;;;5.50;3.70;;;;;;;22.12;78.97;100779.63;5204547;28;20060;-73
2023/06/09 08:59:12;;;;;;;7.68;4.20;;;;;;;22.31;76.78;100782.50;5201990;28;20020;-73
2023/06/09 09:01:42;;;;;;;7.60;4.03;;;;;;;22.12;78.85;100787.63;5201341;28;20025;-73
2023/06/09 09:04:13;;;;;;;7.68;4.22;;;;;;;21.90;78.60;100787.63;5205950;28;20029;-73
2023/06/09 09:06:43;;;;;;;8.05;4.20;;;;;;;22.24;76.75;100776.81;5206449;28;20522;-73
2023/06/09 09:09:14;;;;;;;10.00;3.42;;;;;;;22.47;76.74;100785.66;5205390;28;20391;-73
2023/06/09 09:11:45;;;;;;;5.50;4.05;;;;;;;22.09;77.09;100790.53;5205168;28;20072;-73
2023/06/09 09:14:15;;;;;;;6.85;3.60;;;;;;;22.02;77.24;100787.50;5205211;28;20530;-73
2023/06/09 09:16:46;;;;;;;6.18;4.10;;;;;;;21.90;77.02;100780.47;5203695;28;20068;-73
2023/06/09 09:19:30;;;;;;;6.32;3.83;;;;;;;22.26;76.25;100779.38;5204679;28;20035;-73
2023/06/09 09:22:07;;;;;;;6.53;3.92;;;;;;;22.14;77.70;100785.66;5202943;28;20029;-73
2023/06/09 09:24:41;;;;;;;7.05;3.75;;;;;;;22.12;76.22;100782.28;5200035;28;20125;-73
2023/06/09 09:27:19;;;;;;;6.40;4.03;;;;;;;22.12;76.74;100779.63;5209374;28;20098;-73
2023/06/09 09:29:49;;;;;;;5.80;3.38;;;;;;;22.31;75.73;100771.84;5201888;28;20033;-73
2023/06/09 09:32:25;;;;;;;6.93;3.70;;;;;;;22.17;75.22;100772.09;5202926;28;20024;-72
2023/06/09 09:34:55;;;;;;;;;;;;;;;22.41;73.59;100768.34;5200083;28;20127;-72
2023/06/09 09:37:26;;;;;;;11.05;3.80;;;;;;;21.71;75.03;100780.22;5200138;28;20087;-73
2023/06/09 09:39:56;;;;;;;7.88;3.85;;;;;;;21.61;74.01;100775.72;5202741;28;20116;-72
2023/06/09 09:42:27;;;;;;;8.43;3.92;;;;;;;21.47;73.39;100767.94;5205926;28;20037;-71
2023/06/09 09:45:02;;;;;;;8.63;3.95;;;;;;;21.57;73.43;100774.25;5205408;28;20026;-73
2023/06/09 09:47:32;;;;;;;9.88;4.13;;;;;;;21.82;72.81;100766.06;5201499;28;20099;-73
2023/06/09 09:50:04;;;;;;;6.50;3.63;;;;;;;21.69;74.01;100762.66;5203565;28;20033;-72
2023/06/09 09:52:35;;;;;;;6.80;4.03;;;;;;;21.34;75.33;100765.38;5202180;28;20039;-73
2023/06/09 09:55:08;;;;;;;7.53;4.35;;;;;;;21.41;75.94;100768.44;5202090;28;20034;-73
2023/06/09 09:57:40;;;;;;;9.60;4.22;;;;;;;21.37;76.62;100769.63;5201816;28;20103;-73
2023/06/09 10:00:12;;;;;;;7.57;4.10;;;;;;;21.18;78.46;100769.31;5202791;28;20278;-73
2023/06/09 10:02:44;;;;;;;6.60;4.20;;;;;;;21.01;78.92;100765.28;5203190;28;20021;-73
2023/06/09 10:05:16;;;;;;;7.68;4.10;;;;;;;20.83;78.67;100761.34;5201814;28;20028;-73
2023/06/09 10:07:51;;;;;;;7.68;4.22;;;;;;;20.91;78.04;100761.63;5245863;23;20453;-70
2023/06/09 10:10:22;;;;;;;6.30;3.78;;;;;;;20.98;77.28;100762.88;5195071;28;20392;-71
2023/06/09 10:12:56;;;;;;;7.80;3.53;;;;;;;20.99;76.01;100766.34;5195977;28;20036;-73
2023/06/09 10:15:26;;;;;;;7.43;3.88;;;;;;;21.08;75.99;100771.00;5196329;28;20025;-72
2023/06/09 10:17:58;;;;;;;9.27;4.40;;;;;;;21.37;75.34;100762.47;5176058;28;20018;-72
2023/06/09 10:20:29;;;;;;;7.95;4.00;;;;;;;21.44;74.54;100762.88;5177603;28;20033;-72
2023/06/09 10:23:00;;;;;;;8.63;3.78;;;;;;;21.52;74.16;100752.47;5177581;28;20030;-73
2023/06/09 10:25:30;;;;;;;5.82;3.50;;;;;;;21.55;73.30;100752.25;5176685;28;20026;-72
2023/06/09 10:28:01;;;;;;;6.05;3.47;;;;;;;21.47;70.17;100758.16;5181053;28;20183;-72
2023/06/09 10:30:31;;;;;;;8.38;3.40;;;;;;;21.24;72.51;100761.72;5175234;28;20018;-72
2023/06/09 10:33:14;;;;;;;6.75;3.53;;;;;;;21.23;73.35;100759.19;5159077;28;20133;-72
2023/06/09 10:35:47;;;;;;;7.35;3.65;;;;;;;21.42;74.30;100765.63;5177814;28;20022;-73
2023/06/09 10:38:22;;;;;;;6.72;2.90;;;;;;;21.33;69.97;100761.03;5176809;28;20032;-73
2023/06/09 10:41:04;;;;;;;7.30;3.40;;;;;;;21.27;71.86;100760.66;5175708;28;20030;-73
2023/06/09 10:43:52;;;;;;;5.57;3.28;;;;;;;21.47;70.81;100757.31;5177319;28;20037;-73
2023/06/09 10:46:43;;;;;;;8.02;3.35;;;;;;;21.36;71.24;100766.13;5177133;28;20084;-73
2023/06/09 10:49:42;;;;;;;5.93;3.40;;;;;;;21.53;71.85;100764.78;5175463;28;20026;-73
2023/06/09 10:52:34;;;;;;;5.45;3.38;;;;;;;21.57;71.19;100764.44;5167016;28;20056;-72
2023/06/09 10:55:13;;;;;;;6.53;3.60;;;;;;;21.58;70.93;100766.13;5180097;28;20087;-72
2023/06/09 10:57:43;;;;;;;6.93;3.60;;;;;;;21.67;71.09;100768.13;5179596;28;20381;-72
2023/06/09 11:00:15;;;;;;;5.97;3.20;;;;;;;21.78;70.80;100761.97;5182873;28;20093;-73
2023/06/09 11:03:12;;;;;;;8.65;3.60;;;;;;;21.81;70.85;100769.69;5179626;28;20033;-73
2023/06/09 11:05:44;;;;;;;7.68;3.60;;;;;;;21.64;71.27;100765.72;5177325;28;20030;-73
2023/06/09 11:08:15;;;;;;;6.95;3.75;;;;;;;21.71;71.23;100764.25;5184740;28;20038;-73
2023/06/09 11:10:46;;;;;;;8.63;3.70;;;;;;;21.91;71.05;100755.53;5185504;28;20033;-73
2023/06/09 11:13:38;;;;;;;8.90;3.10;;;;;;;22.03;69.54;100756.38;5181159;28;20034;-73
2023/06/09 11:16:09;;;;;;;5.07;3.03;;;;;;;21.78;69.39;100756.63;5180241;28;20117;-73
2023/06/09 11:18:39;;;;;;;6.25;3.13;;;;;;;21.92;68.90;100753.75;5177636;28;20118;-72
2023/06/09 11:21:20;;;;;;;5.90;3.17;;;;;;;21.79;68.82;100758.34;5178714;28;20464;-73
2023/06/09 11:23:54;;;;;;;6.28;3.33;;;;;;;21.97;70.23;100757.75;5179588;28;20017;-72
2023/06/09 11:26:25;;;;;;;6.00;3.00;;;;;;;22.18;68.36;100750.69;5181374;28;20033;-72
2023/06/09 11:28:56;;;;;;;5.63;2.97;;;;;;;22.14;69.52;100756.38;5178581;28;20545;-73
2023/06/09 11:31:27;;;;;;;6.13;2.83;;;;;;;21.93;70.50;100750.94;5179717;28;20228;-72
2023/06/09 11:33:57;;;;;;;4.38;2.80;;;;;;;22.03;69.55;100753.72;5179000;28;20076;-72
2023/06/09 11:36:30;;;;;;;5.18;2.90;;;;;;;22.15;69.53;100750.94;5180408;28;20025;-73
2023/06/09 11:39:04;;;;;;;5.68;3.13;;;;;;;22.21;69.88;100742.44;5178085;28;20021;-72
2023/06/09 11:41:35;;;;;;;5.88;3.40;;;;;;;22.25;70.86;100743.06;5177711;28;20053;-71
2023/06/09 11:44:05;;;;;;;5.22;3.00;;;;;;;22.31;72.59;100743.41;5178874;28;20033;-72